createdAt,value
2022-08-07T00:00:54.702Z,93.26
2022-08-07T00:02:40.487Z,95.07
2022-08-07T00:02:54.661Z,95.89
2022-08-07T00:03:55.141Z,96.47
2022-08-07T00:04:54.699Z,96.32
2022-08-07T00:05:54.598Z,95.94
2022-08-07T00:06:54.579Z,96.32
2022-08-07T00:07:58.348Z,97.18
2022-08-07T00:08:54.538Z,96.22
2022-08-07T00:10:19.182Z,96.13
2022-08-07T00:10:57.406Z,95.94
2022-08-07T00:11:58.681Z,95.94
2022-08-07T00:13:00.408Z,95.65
2022-08-07T00:13:54.440Z,95.84
2022-08-07T00:14:54.416Z,95.84
2022-08-07T00:15:54.795Z,95.65
2022-08-07T00:16:54.380Z,95.75
2022-08-07T00:17:54.352Z,95.75
2022-08-07T00:18:54.342Z,96.03
2022-08-07T00:20:02.544Z,95.07
2022-08-07T00:20:54.294Z,95.94
2022-08-07T00:21:56.041Z,95.61
2022-08-07T00:22:54.255Z,95.75
2022-08-07T00:23:54.234Z,95.65
2022-08-07T00:24:54.211Z,95.65
2022-08-07T00:26:01.571Z,96.42
2022-08-07T00:26:59.162Z,96.89
2022-08-07T00:27:56.364Z,97.18
2022-08-07T00:28:56.576Z,96.42
2022-08-07T00:29:54.107Z,97.04
2022-08-07T00:30:54.086Z,96.94
2022-08-07T00:31:54.066Z,97.42
2022-08-07T00:32:54.057Z,97.42
2022-08-07T00:33:54.022Z,97.71
2022-08-07T00:34:54.003Z,97.71
2022-08-07T00:35:53.983Z,98.18
2022-08-07T00:36:53.963Z,98.09
2022-08-07T00:37:53.940Z,97.90
2022-08-07T00:38:53.920Z,98.18
2022-08-07T00:39:54.245Z,98.09
2022-08-07T00:40:53.878Z,97.61
2022-08-07T00:42:02.319Z,97.33
2022-08-07T00:42:53.837Z,97.52
2022-08-07T00:44:00.667Z,98.71
2022-08-07T00:44:53.795Z,99.99
2022-08-07T00:45:53.775Z,99.99
2022-08-07T00:46:53.755Z,99.99
2022-08-07T00:48:09.129Z,99.99
2022-08-07T00:48:53.716Z,99.99
2022-08-07T00:50:19.536Z,99.99
2022-08-07T00:50:53.676Z,99.99
2022-08-07T00:51:58.354Z,99.99
2022-08-07T00:52:53.630Z,99.99
2022-08-07T00:53:55.899Z,99.99
2022-08-07T00:54:54.308Z,99.99
2022-08-07T00:56:02.502Z,99.99
2022-08-07T00:56:53.555Z,99.99
2022-08-07T00:57:55.934Z,99.99
2022-08-07T00:58:53.506Z,99.99
2022-08-07T00:59:53.503Z,99.99
2022-08-07T01:00:54.236Z,99.99
2022-08-07T01:01:53.486Z,99.99
2022-08-07T01:02:53.426Z,99.99
2022-08-07T01:03:56.344Z,99.99
2022-08-07T01:04:53.383Z,99.99
2022-08-07T01:05:53.614Z,99.99
2022-08-07T01:06:53.832Z,99.99
2022-08-07T01:07:53.320Z,99.99
2022-08-07T01:08:55.784Z,99.99
2022-08-07T01:10:05.988Z,99.99
2022-08-07T01:10:56.367Z,99.99
2022-08-07T01:12:09.036Z,99.99
2022-08-07T01:12:54.706Z,99.99
2022-08-07T01:13:55.714Z,99.99
2022-08-07T01:15:00.791Z,99.99
2022-08-07T01:16:05.435Z,99.99
2022-08-07T01:16:53.139Z,99.99
2022-08-07T01:17:53.113Z,99.99
2022-08-07T01:18:53.090Z,99.99
2022-08-07T01:19:54.594Z,99.99
2022-08-07T01:20:57.524Z,99.99
2022-08-07T01:21:55.154Z,99.99
2022-08-07T01:23:08.948Z,99.99
2022-08-07T01:23:52.985Z,99.99
2022-08-07T01:24:52.966Z,99.99
2022-08-07T01:25:55.751Z,99.99
2022-08-07T01:26:53.907Z,99.99
2022-08-07T01:27:52.903Z,99.99
2022-08-07T01:28:52.887Z,99.99
2022-08-07T01:29:52.859Z,99.99
2022-08-07T01:30:52.840Z,99.71
2022-08-07T01:31:52.819Z,99.90
2022-08-07T01:32:52.799Z,99.99
2022-08-07T01:33:57.430Z,99.57
2022-08-07T01:34:52.760Z,99.81
2022-08-07T01:36:05.936Z,99.90
2022-08-07T01:36:58.300Z,99.99
2022-08-07T01:37:52.694Z,99.99
2022-08-07T01:38:52.671Z,99.99
2022-08-07T01:39:52.728Z,99.99
2022-08-07T01:40:52.671Z,99.99
2022-08-07T01:42:01.517Z,99.57
2022-08-07T01:42:58.507Z,99.85
2022-08-07T01:43:52.567Z,99.85
2022-08-07T01:44:52.559Z,99.99
2022-08-07T01:45:54.352Z,99.99
2022-08-07T01:46:52.506Z,99.99
2022-08-07T01:48:20.892Z,99.99
2022-08-07T01:48:52.465Z,99.99
2022-08-07T01:49:53.649Z,99.99
2022-08-07T01:50:52.424Z,99.99
2022-08-07T01:52:03.913Z,99.99
2022-08-07T01:52:54.454Z,99.99
2022-08-07T01:54:11.994Z,99.99
2022-08-07T01:54:52.338Z,99.99
2022-08-07T01:55:52.316Z,99.99
2022-08-07T01:56:52.297Z,99.99
2022-08-07T01:58:05.553Z,99.99
2022-08-07T01:58:52.255Z,99.99
2022-08-07T01:59:52.234Z,99.95
2022-08-07T02:00:52.316Z,99.99
2022-08-07T02:02:01.638Z,99.99
2022-08-07T02:03:18.060Z,99.99
2022-08-07T02:03:52.189Z,99.99
2022-08-07T02:04:56.388Z,99.99
2022-08-07T02:06:00.799Z,99.99
2022-08-07T02:06:52.096Z,99.99
2022-08-07T02:07:52.157Z,99.99
2022-08-07T02:08:54.397Z,99.99
2022-08-07T02:09:58.324Z,99.99
2022-08-07T02:10:55.111Z,99.99
2022-08-07T02:12:03.877Z,99.99
2022-08-07T02:12:51.960Z,99.99
2022-08-07T02:13:58.011Z,99.99
2022-08-07T02:14:51.916Z,99.99
2022-08-07T02:15:53.145Z,99.99
2022-08-07T02:16:51.876Z,99.99
2022-08-07T02:17:51.984Z,99.99
2022-08-07T02:18:51.843Z,99.99
2022-08-07T02:20:06.593Z,99.99
2022-08-07T02:20:51.916Z,99.99
2022-08-07T02:21:55.989Z,99.99
2022-08-07T02:22:53.012Z,99.99
2022-08-07T02:23:51.731Z,99.99
2022-08-07T02:24:51.709Z,99.99
2022-08-07T02:26:31.267Z,99.99
2022-08-07T02:26:51.676Z,99.99
2022-08-07T02:27:52.334Z,99.99
2022-08-07T02:28:51.623Z,99.99
2022-08-07T02:29:54.329Z,99.99
2022-08-07T02:30:51.581Z,99.99
2022-08-07T02:31:51.561Z,99.99
2022-08-07T02:33:00.458Z,99.99
2022-08-07T02:34:01.774Z,99.99
2022-08-07T02:34:51.542Z,99.99
2022-08-07T02:36:27.081Z,99.99
2022-08-07T02:36:51.464Z,99.99
2022-08-07T02:37:51.444Z,99.99
2022-08-07T02:38:56.972Z,99.99
2022-08-07T02:40:01.713Z,99.99
2022-08-07T02:40:55.354Z,99.99
2022-08-07T02:41:54.400Z,99.99
2022-08-07T02:42:51.326Z,99.99
2022-08-07T02:43:51.312Z,99.99
2022-08-07T02:44:51.979Z,99.99
2022-08-07T02:46:00.401Z,99.99
2022-08-07T02:46:52.776Z,99.99
2022-08-07T02:47:51.296Z,99.99
2022-08-07T02:48:54.975Z,99.99
2022-08-07T02:49:57.614Z,99.99
2022-08-07T02:50:51.157Z,99.99
2022-08-07T02:51:52.329Z,99.99
2022-08-07T02:52:51.114Z,99.99
2022-08-07T02:53:51.098Z,99.99
2022-08-07T02:54:51.974Z,99.99
2022-08-07T02:56:03.100Z,99.99
2022-08-07T02:56:51.039Z,99.99
2022-08-07T02:57:51.011Z,99.99
2022-08-07T02:58:50.993Z,99.99
2022-08-07T03:00:00.902Z,99.99
2022-08-07T03:00:51.017Z,99.99
2022-08-07T03:01:52.163Z,99.99
2022-08-07T03:02:54.412Z,99.99
2022-08-07T03:03:51.027Z,99.99
2022-08-07T03:04:50.862Z,99.99
2022-08-07T03:05:50.843Z,99.99
2022-08-07T03:06:50.824Z,99.99
2022-08-07T03:08:07.182Z,99.99
2022-08-07T03:08:50.777Z,99.99
2022-08-07T03:09:52.224Z,99.99
2022-08-07T03:10:50.736Z,99.99
2022-08-07T03:11:52.544Z,99.99
2022-08-07T03:12:50.695Z,99.99
2022-08-07T03:13:50.674Z,99.99
2022-08-07T03:14:52.493Z,99.99
2022-08-07T03:15:56.309Z,99.99
2022-08-07T03:16:50.609Z,99.99
2022-08-07T03:17:54.075Z,99.99
2022-08-07T03:18:50.567Z,99.99
2022-08-07T03:19:54.857Z,99.99
2022-08-07T03:20:50.521Z,99.99
2022-08-07T03:21:51.183Z,99.99
2022-08-07T03:22:50.601Z,99.99
2022-08-07T03:24:18.998Z,99.99
2022-08-07T03:24:50.441Z,99.99
2022-08-07T03:25:58.250Z,99.99
2022-08-07T03:26:58.321Z,99.99
2022-08-07T03:28:08.816Z,99.99
2022-08-07T03:28:51.559Z,99.99
2022-08-07T03:29:51.244Z,99.99
2022-08-07T03:30:50.310Z,99.99
2022-08-07T03:31:50.289Z,99.99
2022-08-07T03:32:58.540Z,99.99
2022-08-07T03:33:50.247Z,99.99
2022-08-07T03:35:16.907Z,99.99
2022-08-07T03:35:50.810Z,99.99
2022-08-07T03:36:50.180Z,99.99
2022-08-07T03:37:54.043Z,99.99
2022-08-07T03:38:50.136Z,99.99
2022-08-07T03:39:59.443Z,99.99
2022-08-07T03:40:54.025Z,99.99
2022-08-07T03:41:50.962Z,99.99
2022-08-07T03:42:50.054Z,99.99
2022-08-07T03:43:57.288Z,99.99
2022-08-07T03:44:57.672Z,99.99
2022-08-07T03:45:49.992Z,99.99
2022-08-07T03:47:13.638Z,99.99
2022-08-07T03:47:51.415Z,99.99
2022-08-07T03:49:02.404Z,99.99
2022-08-07T03:49:52.428Z,99.99
2022-08-07T03:50:55.713Z,99.99
2022-08-07T03:52:01.162Z,99.99
2022-08-07T03:52:49.843Z,99.99
2022-08-07T03:54:05.673Z,99.99
2022-08-07T03:54:54.524Z,99.99
2022-08-07T03:56:03.768Z,99.99
2022-08-07T03:57:03.517Z,99.99
2022-08-07T03:59:05.736Z,99.99
2022-08-07T03:59:09.338Z,99.99
2022-08-07T04:00:02.751Z,99.99
2022-08-07T04:00:53.239Z,99.99
2022-08-07T04:01:49.687Z,99.99
2022-08-07T04:02:49.631Z,99.99
2022-08-07T04:03:55.037Z,99.99
2022-08-07T04:04:49.583Z,99.99
2022-08-07T04:05:49.565Z,99.99
2022-08-07T04:06:51.628Z,99.99
2022-08-07T04:07:49.699Z,99.99
2022-08-07T04:08:49.501Z,99.99
2022-08-07T04:09:50.416Z,99.99
2022-08-07T04:10:54.865Z,99.99
2022-08-07T04:12:24.440Z,99.99
2022-08-07T04:12:49.412Z,99.99
2022-08-07T04:14:10.348Z,99.99
2022-08-07T04:14:49.373Z,99.99
2022-08-07T04:15:49.351Z,99.99
2022-08-07T04:16:58.371Z,99.99
2022-08-07T04:18:30.898Z,99.99
2022-08-07T04:19:01.381Z,99.99
2022-08-07T04:19:51.859Z,99.99
2022-08-07T04:20:54.726Z,99.99
2022-08-07T04:22:05.453Z,99.99
2022-08-07T04:22:53.560Z,99.99
2022-08-07T04:24:07.573Z,99.99
2022-08-07T04:24:49.157Z,99.99
2022-08-07T04:25:49.137Z,99.99
2022-08-07T04:26:49.112Z,99.99
2022-08-07T04:27:59.464Z,99.99
2022-08-07T04:28:49.070Z,99.99
2022-08-07T04:30:02.447Z,99.99
2022-08-07T04:30:57.327Z,99.99
2022-08-07T04:32:03.099Z,99.99
2022-08-07T04:32:48.987Z,99.99
2022-08-07T04:33:55.123Z,99.99
2022-08-07T04:34:48.939Z,99.99
2022-08-07T04:35:50.398Z,99.99
2022-08-07T04:36:49.596Z,99.99
2022-08-07T04:38:03.921Z,99.99
2022-08-07T04:38:48.855Z,99.99
2022-08-07T04:39:49.852Z,99.99
2022-08-07T04:40:51.625Z,99.99
2022-08-07T04:41:50.322Z,99.99
2022-08-07T04:42:51.671Z,99.99
2022-08-07T04:44:12.956Z,99.99
2022-08-07T04:45:02.696Z,99.99
2022-08-07T04:46:00.881Z,99.99
2022-08-07T04:46:59.586Z,99.99
2022-08-07T04:47:58.856Z,99.99
2022-08-07T04:48:50.935Z,99.99
2022-08-07T04:49:58.121Z,99.99
2022-08-07T04:50:52.864Z,99.99
2022-08-07T04:51:48.579Z,99.99
2022-08-07T04:52:52.082Z,99.99
2022-08-07T04:54:01.728Z,99.99
2022-08-07T04:54:50.586Z,99.99
2022-08-07T04:58:09.596Z,99.99
2022-08-07T04:58:12.052Z,99.99
2022-08-07T04:58:24.120Z,99.99
2022-08-07T04:59:18.434Z,99.99
2022-08-07T05:00:12.780Z,99.99
2022-08-07T05:00:48.483Z,99.99
2022-08-07T05:01:50.638Z,99.99
2022-08-07T05:02:48.340Z,99.99
2022-08-07T05:04:06.625Z,99.99
2022-08-07T05:04:50.292Z,99.99
2022-08-07T05:05:53.497Z,99.99
2022-08-07T05:06:51.553Z,99.99
2022-08-07T05:07:51.738Z,99.99
2022-08-07T05:09:01.288Z,99.99
2022-08-07T05:09:48.194Z,99.99
2022-08-07T05:10:48.175Z,99.99
2022-08-07T05:11:58.316Z,99.99
2022-08-07T05:12:53.647Z,99.99
2022-08-07T05:14:54.374Z,99.99
2022-08-07T05:14:58.171Z,99.99
2022-08-07T05:15:48.067Z,99.99
2022-08-07T05:16:52.650Z,99.99
2022-08-07T05:17:52.156Z,99.99
2022-08-07T05:18:48.000Z,99.99
2022-08-07T05:19:47.979Z,99.99
2022-08-07T05:20:48.047Z,99.99
2022-08-07T05:22:00.035Z,99.99
2022-08-07T05:22:47.917Z,99.99
2022-08-07T05:23:47.899Z,99.99
2022-08-07T05:24:47.872Z,99.99
2022-08-07T05:26:11.579Z,99.99
2022-08-07T05:26:47.831Z,99.99
2022-08-07T05:28:02.835Z,99.99
2022-08-07T05:28:50.134Z,99.99
2022-08-07T05:29:51.103Z,99.99
2022-08-07T05:30:47.743Z,99.99
2022-08-07T05:31:52.699Z,99.99
2022-08-07T05:32:47.703Z,99.99
2022-08-07T05:33:51.187Z,99.99
2022-08-07T05:34:47.661Z,99.99
2022-08-07T05:35:47.825Z,99.99
2022-08-07T05:36:49.034Z,99.99
2022-08-07T05:37:47.598Z,99.99
2022-08-07T05:38:59.848Z,99.99
2022-08-07T05:40:05.335Z,99.99
2022-08-07T05:40:51.581Z,99.99
2022-08-07T05:42:01.138Z,99.99
2022-08-07T05:42:55.763Z,99.99
2022-08-07T05:44:07.663Z,99.99
2022-08-07T05:45:04.372Z,99.99
2022-08-07T05:45:48.346Z,99.99
2022-08-07T05:46:47.408Z,99.99
2022-08-07T05:48:01.862Z,99.99
2022-08-07T05:48:58.322Z,99.99
2022-08-07T05:49:47.343Z,99.99
2022-08-07T05:50:47.325Z,99.99
2022-08-07T05:51:47.308Z,99.99
2022-08-07T05:52:47.278Z,99.99
2022-08-07T05:54:12.423Z,99.99
2022-08-07T05:54:55.425Z,99.99
2022-08-07T05:56:03.566Z,99.99
2022-08-07T05:56:47.199Z,99.99
2022-08-07T05:57:47.175Z,99.99
2022-08-07T05:58:49.226Z,99.99
2022-08-07T05:59:57.956Z,99.99
2022-08-07T06:00:51.045Z,99.99
2022-08-07T06:01:47.151Z,99.99
2022-08-07T06:02:47.113Z,99.99
2022-08-07T06:03:57.249Z,99.99
2022-08-07T06:04:47.027Z,99.99
2022-08-07T06:05:49.016Z,99.99
2022-08-07T06:06:47.866Z,99.99
2022-08-07T06:08:13.996Z,99.99
2022-08-07T06:08:47.025Z,99.99
2022-08-07T06:10:04.176Z,99.99
2022-08-07T06:10:46.901Z,99.99
2022-08-07T06:11:46.882Z,99.00
2022-08-07T06:12:46.861Z,98.81
2022-08-07T06:14:11.731Z,98.14
2022-08-07T06:14:49.529Z,99.38
2022-08-07T06:15:46.797Z,99.10
2022-08-07T06:16:50.576Z,98.62
2022-08-07T06:17:53.962Z,98.62
2022-08-07T06:18:51.800Z,98.71
2022-08-07T06:19:57.531Z,97.18
2022-08-07T06:20:50.789Z,96.89
2022-08-07T06:22:16.402Z,96.51
2022-08-07T06:23:01.836Z,96.03
2022-08-07T06:24:37.596Z,95.56
2022-08-07T06:24:57.827Z,95.56
2022-08-07T06:25:54.000Z,95.56
2022-08-07T06:26:46.570Z,95.03
2022-08-07T06:28:01.358Z,95.51
2022-08-07T06:28:46.528Z,95.51
2022-08-07T06:29:46.506Z,94.84
2022-08-07T06:30:50.828Z,94.64
2022-08-07T06:31:49.529Z,94.02
2022-08-07T06:32:46.446Z,94.84
2022-08-07T06:33:46.428Z,94.26
2022-08-07T06:34:46.403Z,93.49
2022-08-07T06:36:06.733Z,93.30
2022-08-07T06:36:46.365Z,93.98
2022-08-07T06:37:46.513Z,93.88
2022-08-07T06:38:59.546Z,94.35
2022-08-07T06:40:13.611Z,93.40
2022-08-07T06:40:46.341Z,93.78
2022-08-07T06:42:01.910Z,93.40
2022-08-07T06:42:46.661Z,93.30
2022-08-07T06:43:59.169Z,93.40
2022-08-07T06:44:51.231Z,92.87
2022-08-07T06:45:46.178Z,91.53
2022-08-07T06:46:53.462Z,91.14
2022-08-07T06:47:57.682Z,91.14
2022-08-07T06:48:46.116Z,91.82
2022-08-07T06:49:51.117Z,93.06
2022-08-07T06:50:48.029Z,92.77
2022-08-07T06:51:49.833Z,92.49
2022-08-07T06:52:46.036Z,91.24
2022-08-07T06:55:27.906Z,91.82
2022-08-07T06:55:32.699Z,91.72
2022-08-07T06:55:53.584Z,91.91
2022-08-07T06:56:48.578Z,91.77
2022-08-07T06:57:52.015Z,91.19
2022-08-07T07:00:12.819Z,91.00
2022-08-07T07:00:14.421Z,90.90
2022-08-07T07:00:45.870Z,89.27
2022-08-07T07:01:50.999Z,88.79
2022-08-07T07:02:49.097Z,88.22
2022-08-07T07:03:49.034Z,87.64
2022-08-07T07:04:54.893Z,88.89
2022-08-07T07:06:05.080Z,88.51
2022-08-07T07:07:00.447Z,88.70
2022-08-07T07:07:58.534Z,89.37
2022-08-07T07:08:46.597Z,89.27
2022-08-07T07:09:45.685Z,88.60
2022-08-07T07:10:47.494Z,89.27
2022-08-07T07:12:08.138Z,89.41
2022-08-07T07:12:48.826Z,89.32
2022-08-07T07:13:57.452Z,89.32
2022-08-07T07:14:45.585Z,88.84
2022-08-07T07:15:45.565Z,88.35
2022-08-07T07:16:50.727Z,89.12
2022-08-07T07:17:45.625Z,89.12
2022-08-07T07:18:47.763Z,88.93
2022-08-07T07:19:57.087Z,88.74
2022-08-07T07:20:45.651Z,88.55
2022-08-07T07:22:04.671Z,87.63
2022-08-07T07:24:08.570Z,87.11
2022-08-07T07:24:09.660Z,86.72
2022-08-07T07:24:58.346Z,86.54
2022-08-07T07:26:34.759Z,86.48
2022-08-07T07:26:52.001Z,87.63
2022-08-07T07:27:55.536Z,86.87
2022-08-07T07:29:39.655Z,87.15
2022-08-07T07:30:08.816Z,85.24
2022-08-07T07:30:45.260Z,85.33
2022-08-07T07:31:46.835Z,86.19
2022-08-07T07:32:45.225Z,85.62
2022-08-07T07:33:49.017Z,85.62
2022-08-07T07:34:45.297Z,85.95
2022-08-07T07:36:04.093Z,86.14
2022-08-07T07:36:48.024Z,87.10
2022-08-07T07:37:52.519Z,85.95
2022-08-07T07:38:46.239Z,84.89
2022-08-07T07:39:52.528Z,84.45
2022-08-07T07:40:45.058Z,84.55
2022-08-07T07:42:02.204Z,84.55
2022-08-07T07:42:50.929Z,84.36
2022-08-07T07:44:14.655Z,82.53
2022-08-07T07:44:44.981Z,82.63
2022-08-07T07:46:37.523Z,83.01
2022-08-07T07:46:55.640Z,83.11
2022-08-07T07:47:52.689Z,82.92
2022-08-07T07:48:46.010Z,82.05
2022-08-07T07:50:36.409Z,81.48
2022-08-07T07:50:44.860Z,81.61
2022-08-07T07:51:57.569Z,81.13
2022-08-07T07:52:47.073Z,80.46
2022-08-07T07:53:50.355Z,80.75
2022-08-07T07:54:50.579Z,80.36
2022-08-07T07:55:45.805Z,81.61
2022-08-07T07:56:44.751Z,80.27
2022-08-07T07:57:53.617Z,80.69
2022-08-07T07:58:44.703Z,81.17
2022-08-07T07:59:52.320Z,78.96
2022-08-07T08:00:47.800Z,77.81
2022-08-07T08:02:03.420Z,77.33
2022-08-07T08:03:04.656Z,77.33
2022-08-07T08:04:05.994Z,76.75
2022-08-07T08:04:44.691Z,76.69
2022-08-07T08:05:54.131Z,76.78
2022-08-07T08:06:50.975Z,77.36
2022-08-07T08:07:59.510Z,77.26
2022-08-07T08:08:44.509Z,76.88
2022-08-07T08:09:52.612Z,75.44
2022-08-07T08:10:44.472Z,75.54
2022-08-07T08:11:47.349Z,76.98
2022-08-07T08:12:52.242Z,76.06
2022-08-07T08:13:53.970Z,75.76
2022-08-07T08:14:44.397Z,75.09
2022-08-07T08:15:58.695Z,74.38
2022-08-07T08:16:50.253Z,74.90
2022-08-07T08:17:57.847Z,74.32
2022-08-07T08:18:45.182Z,73.84
2022-08-07T08:20:18.529Z,73.26
2022-08-07T08:20:44.281Z,73.36
2022-08-07T08:22:00.772Z,72.97
2022-08-07T08:22:44.242Z,72.59
2022-08-07T08:23:44.222Z,72.68
2022-08-07T08:24:45.332Z,72.97
2022-08-07T08:25:49.191Z,72.97
2022-08-07T08:26:44.171Z,72.88
2022-08-07T08:27:56.380Z,72.11
2022-08-07T08:28:45.157Z,73.49
2022-08-07T08:29:54.169Z,72.81
2022-08-07T08:30:51.402Z,73.01
2022-08-07T08:32:17.152Z,72.63
2022-08-07T08:32:49.017Z,72.05
2022-08-07T08:33:49.939Z,72.33
2022-08-07T08:34:44.875Z,71.85
2022-08-07T08:35:49.699Z,70.70
2022-08-07T08:36:46.176Z,69.93
2022-08-07T08:38:08.132Z,70.50
2022-08-07T08:38:44.523Z,70.64
2022-08-07T08:39:55.094Z,71.22
2022-08-07T08:40:46.926Z,69.38
2022-08-07T08:41:57.898Z,68.90
2022-08-07T08:42:43.870Z,68.80
2022-08-07T08:43:55.814Z,66.97
2022-08-07T08:44:44.542Z,66.52
2022-08-07T08:45:59.383Z,66.62
2022-08-07T08:46:44.945Z,66.04
2022-08-07T08:47:52.130Z,64.98
2022-08-07T08:48:43.760Z,65.66
2022-08-07T08:49:46.445Z,65.85
2022-08-07T08:50:43.723Z,65.95
2022-08-07T08:51:49.611Z,65.08
2022-08-07T08:52:53.901Z,63.73
2022-08-07T08:53:43.672Z,64.86
2022-08-07T08:54:43.651Z,65.72
2022-08-07T08:55:53.376Z,65.53
2022-08-07T08:56:47.620Z,64.40
2022-08-07T08:57:43.595Z,63.02
2022-08-07T08:58:43.583Z,63.44
2022-08-07T08:59:48.217Z,65.17
2022-08-07T09:00:48.373Z,64.98
2022-08-07T09:01:44.268Z,64.11
2022-08-07T09:02:43.746Z,64.31
2022-08-07T09:03:49.365Z,64.63
2022-08-07T09:04:43.474Z,64.63
2022-08-07T09:05:43.452Z,62.99
2022-08-07T09:06:47.836Z,61.74
2022-08-07T09:07:46.315Z,60.58
2022-08-07T09:08:43.398Z,59.13
2022-08-07T09:09:43.400Z,59.32
2022-08-07T09:10:44.401Z,59.13
2022-08-07T09:11:53.603Z,58.17
2022-08-07T09:12:53.221Z,58.65
2022-08-07T09:13:43.312Z,60.00
2022-08-07T09:14:50.612Z,60.38
2022-08-07T09:16:21.957Z,61.25
2022-08-07T09:16:43.257Z,61.44
2022-08-07T09:18:00.423Z,62.70
2022-08-07T09:18:52.959Z,62.70
2022-08-07T09:19:51.082Z,63.28
2022-08-07T09:20:43.186Z,62.22
2022-08-07T09:22:23.102Z,60.68
2022-08-07T09:24:31.727Z,60.61
2022-08-07T09:24:33.796Z,61.47
2022-08-07T09:24:58.747Z,61.57
2022-08-07T09:25:43.095Z,60.71
2022-08-07T09:26:47.754Z,60.03
2022-08-07T09:27:59.591Z,59.77
2022-08-07T09:30:02.170Z,59.58
2022-08-07T09:30:04.471Z,59.96
2022-08-07T09:30:44.184Z,59.86
2022-08-07T09:31:49.115Z,58.70
2022-08-07T09:32:42.975Z,58.90
2022-08-07T09:33:56.555Z,58.51
2022-08-07T09:34:42.937Z,59.70
2022-08-07T09:36:03.326Z,59.12
2022-08-07T09:36:49.552Z,60.38
2022-08-07T09:37:48.134Z,58.73
2022-08-07T09:38:42.877Z,58.83
2022-08-07T09:39:54.148Z,59.70
2022-08-07T09:40:42.834Z,59.31
2022-08-07T09:41:43.428Z,57.87
2022-08-07T09:42:42.804Z,59.60
2022-08-07T09:44:06.092Z,59.22
2022-08-07T09:44:58.649Z,58.83
2022-08-07T09:47:25.279Z,58.35
2022-08-07T09:47:50.581Z,58.83
2022-08-07T09:47:59.161Z,57.09
2022-08-07T09:48:55.826Z,56.80
2022-08-07T09:49:59.590Z,56.80
2022-08-07T09:50:42.661Z,56.41
2022-08-07T09:52:15.955Z,56.32
2022-08-07T09:52:42.629Z,56.41
2022-08-07T09:53:47.236Z,56.51
2022-08-07T09:54:42.593Z,56.03
2022-08-07T09:56:03.070Z,56.71
2022-08-07T09:56:42.558Z,57.38
2022-08-07T09:57:46.762Z,58.54
2022-08-07T09:58:42.640Z,57.19
2022-08-07T09:59:46.132Z,57.19
2022-08-07T10:00:42.489Z,56.32
2022-08-07T10:01:51.275Z,57.38
2022-08-07T10:02:53.658Z,58.37
2022-08-07T10:04:06.578Z,55.93
2022-08-07T10:04:45.882Z,56.73
2022-08-07T10:05:59.748Z,55.96
2022-08-07T10:06:42.386Z,55.29
2022-08-07T10:07:52.633Z,56.73
2022-08-07T10:08:42.376Z,54.32
2022-08-07T10:09:42.844Z,54.80
2022-08-07T10:12:00.345Z,55.57
2022-08-07T10:12:01.517Z,55.77
2022-08-07T10:12:52.586Z,55.96
2022-08-07T10:14:00.243Z,55.87
2022-08-07T10:14:42.255Z,55.47
2022-08-07T10:15:44.644Z,55.77
2022-08-07T10:16:43.184Z,54.90
2022-08-07T10:18:00.824Z,55.87
2022-08-07T10:18:42.384Z,55.67
2022-08-07T10:19:42.166Z,56.05
2022-08-07T10:20:42.150Z,55.89
2022-08-07T10:22:14.871Z,54.63
2022-08-07T10:22:43.195Z,54.63
2022-08-07T10:24:06.443Z,54.63
2022-08-07T10:24:42.086Z,55.79
2022-08-07T10:25:43.548Z,54.53
2022-08-07T10:26:42.101Z,54.63
2022-08-07T10:27:46.342Z,53.96
2022-08-07T10:28:42.016Z,52.89
2022-08-07T10:29:45.791Z,52.99
2022-08-07T10:30:41.982Z,53.96
2022-08-07T10:31:41.973Z,54.03
2022-08-07T10:32:53.670Z,54.90
2022-08-07T10:34:14.342Z,54.03
2022-08-07T10:34:41.918Z,54.13
2022-08-07T10:35:55.754Z,54.99
2022-08-07T10:36:41.884Z,54.68
2022-08-07T10:37:48.612Z,54.49
2022-08-07T10:38:48.278Z,55.45
2022-08-07T10:40:03.283Z,55.65
2022-08-07T10:40:41.833Z,56.13
2022-08-07T10:41:47.129Z,56.22
2022-08-07T10:42:41.790Z,57.09
2022-08-07T10:43:41.765Z,56.83
2022-08-07T10:44:45.491Z,55.57
2022-08-07T10:45:57.185Z,54.87
2022-08-07T10:46:41.718Z,54.29
2022-08-07T10:47:52.783Z,54.55
2022-08-07T10:48:41.682Z,55.42
2022-08-07T10:49:49.832Z,55.52
2022-08-07T10:50:41.646Z,55.07
2022-08-07T10:52:01.926Z,56.13
2022-08-07T10:52:42.705Z,55.83
2022-08-07T10:53:41.944Z,54.68
2022-08-07T10:54:41.580Z,54.97
2022-08-07T10:55:41.565Z,54.77
2022-08-07T10:56:41.547Z,54.49
2022-08-07T10:57:41.532Z,54.10
2022-08-07T10:58:41.513Z,54.68
2022-08-07T10:59:45.391Z,55.19
2022-08-07T11:00:50.287Z,54.71
2022-08-07T11:01:51.605Z,54.90
2022-08-07T11:02:41.547Z,55.77
2022-08-07T11:03:51.216Z,53.55
2022-08-07T11:04:41.421Z,53.74
2022-08-07T11:05:49.186Z,53.64
2022-08-07T11:06:41.379Z,53.71
2022-08-07T11:07:59.064Z,54.19
2022-08-07T11:08:41.349Z,54.00
2022-08-07T11:10:08.774Z,54.39
2022-08-07T11:10:41.316Z,56.05
2022-08-07T11:11:41.295Z,54.13
2022-08-07T11:12:43.319Z,53.35
2022-08-07T11:14:42.449Z,54.03
2022-08-07T11:14:44.103Z,53.16
2022-08-07T11:15:41.232Z,54.13
2022-08-07T11:16:41.214Z,53.38
2022-08-07T11:17:45.075Z,52.77
2022-08-07T11:18:41.237Z,52.99
2022-08-07T11:19:41.162Z,52.31
2022-08-07T11:20:41.145Z,54.05
2022-08-07T11:21:43.060Z,52.61
2022-08-07T11:22:45.625Z,52.89
2022-08-07T11:23:41.097Z,52.51
2022-08-07T11:24:45.576Z,52.31
2022-08-07T11:25:47.987Z,52.12
2022-08-07T11:26:43.275Z,51.32
2022-08-07T11:28:02.806Z,51.13
2022-08-07T11:28:41.014Z,52.00
2022-08-07T11:29:48.177Z,52.00
2022-08-07T11:30:41.965Z,51.32
2022-08-07T11:31:40.963Z,52.17
2022-08-07T11:32:40.945Z,50.91
2022-08-07T11:33:54.066Z,52.19
2022-08-07T11:34:42.477Z,51.03
2022-08-07T11:35:59.712Z,50.71
2022-08-07T11:36:40.882Z,50.93
2022-08-07T11:37:57.837Z,51.13
2022-08-07T11:38:40.846Z,51.13
2022-08-07T11:40:01.306Z,51.32
2022-08-07T11:40:40.812Z,51.51
2022-08-07T11:42:01.904Z,52.09
2022-08-07T11:42:40.780Z,52.31
2022-08-07T11:43:54.374Z,50.38
2022-08-07T11:44:52.523Z,49.60
2022-08-07T11:45:40.765Z,49.80
2022-08-07T11:46:40.710Z,50.67
2022-08-07T11:47:56.206Z,50.48
2022-08-07T11:48:40.694Z,50.38
2022-08-07T11:50:30.133Z,49.80
2022-08-07T11:50:44.561Z,50.96
2022-08-07T11:51:44.597Z,52.22
2022-08-07T11:52:40.679Z,51.25
2022-08-07T11:53:43.254Z,50.76
2022-08-07T11:54:40.577Z,50.31
2022-08-07T11:56:25.418Z,50.70
2022-08-07T11:56:40.550Z,49.54
2022-08-07T11:57:59.386Z,50.02
2022-08-07T11:58:40.512Z,50.31
2022-08-07T12:00:10.172Z,50.31
2022-08-07T12:00:40.486Z,50.31
2022-08-07T12:02:00.509Z,50.98
2022-08-07T12:02:40.498Z,50.12
2022-08-07T12:03:44.781Z,52.14
2022-08-07T12:04:40.414Z,49.82
2022-08-07T12:05:47.073Z,49.24
2022-08-07T12:06:51.805Z,49.44
2022-08-07T12:07:40.571Z,49.24
2022-08-07T12:08:40.346Z,49.73
2022-08-07T12:09:40.342Z,50.40
2022-08-07T12:10:41.933Z,49.75
2022-08-07T12:11:43.226Z,49.17
2022-08-07T12:12:40.283Z,48.59
2022-08-07T12:13:44.911Z,49.24
2022-08-07T12:14:40.253Z,49.82
2022-08-07T12:16:06.152Z,48.76
2022-08-07T12:16:40.215Z,50.12
2022-08-07T12:17:59.756Z,48.86
2022-08-07T12:18:45.036Z,48.37
2022-08-07T12:19:56.786Z,48.93
2022-08-07T12:20:40.151Z,49.32
2022-08-07T12:21:55.633Z,49.51
2022-08-07T12:22:56.367Z,50.86
2022-08-07T12:24:05.257Z,50.96
2022-08-07T12:24:40.186Z,51.35
2022-08-07T12:26:02.747Z,51.51
2022-08-07T12:26:46.229Z,51.25
2022-08-07T12:28:09.742Z,52.61
2022-08-07T12:28:40.021Z,52.31
2022-08-07T12:29:40.253Z,51.25
2022-08-07T12:30:40.347Z,50.96
2022-08-07T12:31:52.763Z,51.15
2022-08-07T12:32:39.954Z,51.25
2022-08-07T12:34:01.153Z,49.82
2022-08-07T12:34:39.921Z,49.99
2022-08-07T12:35:39.903Z,50.18
2022-08-07T12:36:39.888Z,49.80
2022-08-07T12:38:08.976Z,50.70
2022-08-07T12:38:47.078Z,50.31
2022-08-07T12:39:42.682Z,51.56
2022-08-07T12:40:48.935Z,51.18
2022-08-07T12:41:49.291Z,49.60
2022-08-07T12:42:39.787Z,49.41
2022-08-07T12:44:02.069Z,50.18
2022-08-07T12:44:39.757Z,51.73
2022-08-07T12:45:39.740Z,51.18
2022-08-07T12:46:39.723Z,50.79
2022-08-07T12:47:40.645Z,50.40
2022-08-07T12:48:41.611Z,49.54
2022-08-07T12:49:51.398Z,51.20
2022-08-07T12:50:49.133Z,51.01
2022-08-07T12:51:51.058Z,51.10
2022-08-07T12:52:39.626Z,49.85